Time;durP1;ratioP1;P1;durP2;ratioP2;P2;SDS_P1;SDS_P2;PMS_P1;PMS_P2;Temp;Humidity;BMP_temperature;BMP_pressure;BME280_temperature;BME280_humidity;BME280_pressure;Samples;Min_cycle;Max_cycle;Signal;HPM_P1;HPM_P2
2022/07/26 00:01:21;;;;;;;1.58;0.93;;;;;;;23.88;79.12;99843.47;5008362;28;20213;-77
2022/07/26 00:03:50;;;;;;;1.52;0.82;;;23.50;99.90;;;23.83;79.85;99837.47;5007782;28;20227;-74
2022/07/26 00:06:19;;;;;;;2.03;1.10;;;;;;;23.84;79.87;99844.59;5008563;28;20225;-80
2022/07/26 00:08:47;;;;;;;2.33;1.17;;;23.40;99.90;;;23.71;80.76;99840.84;5004515;28;20204;-79
2022/07/26 00:11:16;;;;;;;1.90;1.00;;;;;;;23.69;80.26;99841.88;5007438;28;20200;-74
2022/07/26 00:13:45;;;;;;;1.75;0.90;;;;;;;23.67;80.00;99841.09;4990462;28;20250;-77
2022/07/26 00:16:13;;;;;;;1.83;1.00;;;;;;;23.67;80.43;99854.59;5006602;28;20255;-80
2022/07/26 00:18:42;;;;;;;2.38;1.25;;;;;;;23.56;81.19;99853.34;5004377;28;20660;-79
2022/07/26 00:21:10;;;;;;;1.60;0.80;;;;;;;23.55;81.48;99861.50;5007953;28;20211;-74
2022/07/26 00:23:39;;;;;;;4.30;2.05;;;;;;;23.50;81.73;99867.13;5005416;28;20613;-82
2022/07/26 00:26:07;;;;;;;1.92;1.00;;;;;;;23.41;82.34;99875.69;5004509;28;20204;-75
2022/07/26 00:28:35;;;;;;;2.25;1.10;;;;;;;23.33;82.13;99877.91;5006089;28;20211;-74
2022/07/26 00:31:04;;;;;;;2.90;1.30;;;;;;;23.30;82.33;99876.22;5006082;28;20200;-77
2022/07/26 00:33:32;;;;;;;2.70;1.17;;;;;;;23.26;82.70;99871.06;5008390;28;20220;-74
2022/07/26 00:36:00;;;;;;;4.20;1.67;;;;;;;23.27;82.86;99889.88;5007048;28;20232;-78
2022/07/26 00:38:29;;;;;;;5.15;1.90;;;;;;;23.19;83.20;99902.91;5006573;28;20227;-79
2022/07/26 00:40:57;;;;;;;6.28;2.25;;;;;;;23.07;84.82;99911.63;5007103;28;20216;-77
2022/07/26 00:43:26;;;;;;;5.85;2.25;;;;;;;23.01;85.11;99932.63;5004588;28;20216;-74
2022/07/26 00:45:54;;;;;;;1.90;0.82;;;;;;;22.89;85.85;99942.19;5008002;28;20211;-78
2022/07/26 00:48:22;;;;;;;3.65;1.35;;;;;;;22.64;87.10;99946.06;5005702;28;20215;-76
2022/07/26 00:50:53;;;;;;;3.65;1.50;;;22.50;99.90;;;22.58;88.00;99958.94;5002493;28;20219;-74
2022/07/26 00:53:22;;;;;;;4.45;1.65;;;22.40;99.90;;;22.44;89.41;99961.44;5006360;28;20235;-78
2022/07/26 00:55:52;;;;;;;3.97;1.45;;;22.30;99.90;;;22.45;88.59;99980.22;5008682;28;20203;-74
2022/07/26 00:58:20;;;;;;;5.03;2.05;;;;;;;22.44;88.62;100001.84;5005117;28;20203;-78
2022/07/26 01:00:48;;;;;;;4.03;1.65;;;;;;;22.38;89.23;100007.50;4987140;28;20204;-79
2022/07/26 01:03:16;;;;;;;5.03;1.92;;;;;;;22.28;89.87;100020.53;5003933;28;20227;-80
2022/07/26 01:05:45;;;;;;;14.93;4.88;;;;;;;22.28;89.77;100034.00;4982145;28;20211;-78
2022/07/26 01:08:13;;;;;;;5.00;1.83;;;;;;;22.23;89.92;100041.41;5004012;28;20207;-75
2022/07/26 01:10:42;;;;;;;4.78;1.67;;;;;;;22.19;90.06;100048.75;4987454;28;20218;-74
2022/07/26 01:13:12;;;;;;;5.43;1.95;;;;;;;22.18;89.77;100048.84;5004974;28;20227;-74
2022/07/26 01:15:40;;;;;;;6.10;2.00;;;;;;;22.16;89.96;100061.50;5001936;28;20211;-79
2022/07/26 01:18:08;;;;;;;3.80;1.38;;;;;;;22.02;90.46;100053.94;5004314;28;20232;-74
2022/07/26 01:20:36;;;;;;;3.45;1.60;;;;;;;21.84;91.59;100057.44;5004748;28;20200;-74
2022/07/26 01:23:06;;;;;;;3.28;1.50;;;21.70;99.90;;;21.69;94.64;100075.13;4986475;28;20228;-74
2022/07/26 01:25:37;;;;;;;1.10;0.70;;;21.50;99.90;;;21.57;94.18;100086.41;5005557;28;20734;-74
2022/07/26 01:28:10;;;;;;;1.92;1.20;;;;;;;21.63;94.72;100110.38;5004296;28;20219;-78
2022/07/26 01:30:48;;;;;;;2.85;1.30;;;21.50;99.90;;;21.67;93.71;100106.63;5004671;28;20219;-76
2022/07/26 01:33:16;;;;;;;2.85;1.13;;;;;;;21.64;93.33;100101.34;4985712;28;20243;-81
2022/07/26 01:35:44;;;;;;;1.98;1.05;;;;;;;21.68;93.08;100117.31;5005187;28;20208;-81
2022/07/26 01:38:13;;;;;;;2.72;1.23;;;;;;;21.55;93.95;100117.88;5002511;28;20243;-76
2022/07/26 01:40:41;;;;;;;2.35;1.10;;;;;;;21.51;94.45;100124.34;5004049;28;20211;-76
2022/07/26 01:43:09;;;;;;;3.60;1.40;;;;;;;21.32;95.92;100129.56;5003594;28;20231;-75
2022/07/26 01:45:38;;;;;;;2.25;0.98;;;;;;;21.12;97.28;100127.63;5005352;28;20204;-75
2022/07/26 01:48:07;;;;;;;5.38;1.65;;;;;;;21.19;97.44;100145.28;5004522;28;20207;-78
2022/07/26 01:50:37;;;;;;;2.22;0.93;;;20.90;99.90;;;21.13;97.29;100155.41;5005710;28;20208;-76
2022/07/26 01:53:06;;;;;;;5.00;2.05;;;;;;;21.09;98.08;100160.03;5004639;28;20224;-78
2022/07/26 01:55:34;;;;;;;2.60;1.10;;;20.90;99.90;;;21.03;98.55;100171.88;5003828;28;20208;-78
2022/07/26 01:58:04;;;;;;;3.60;1.70;;;20.90;99.90;;;20.92;98.99;100162.47;5004046;28;20227;-74
2022/07/26 02:00:33;;;;;;;1.65;0.80;;;;;;;20.90;100.00;100183.16;5004460;28;20211;-75
2022/07/26 02:03:01;;;;;;;2.05;1.10;;;;;;;20.96;100.00;100196.38;5000816;28;20224;-77
2022/07/26 02:05:30;;;;;;;3.65;1.70;;;;;;;20.87;100.00;100197.59;5004434;28;20209;-76
2022/07/26 02:07:58;;;;;;;2.08;1.02;;;;;;;20.84;100.00;100203.09;5005417;28;20204;-74
2022/07/26 02:13:24;;;;;;;2.42;1.25;;;;;;;20.84;100.00;100208.47;4981395;28;20220;-74
2022/07/26 02:15:53;;;;;;;2.00;1.60;;;;;;;20.95;98.98;100219.69;5007822;28;20208;-74
2022/07/26 02:18:21;;;;;;;1.40;0.80;;;;;;;20.87;99.23;100219.09;5005984;28;20238;-76
2022/07/26 02:20:49;;;;;;;1.00;0.60;;;;;;;20.90;97.33;100213.63;5013595;28;20204;-77
2022/07/26 02:23:17;;;;;;;1.27;0.60;;;;;;;20.90;96.64;100196.59;5002661;28;20228;-75
2022/07/26 02:25:46;;;;;;;1.08;0.52;;;;;;;20.82;96.82;100202.25;5009853;28;20204;-74
2022/07/26 02:28:15;;;;;;;1.40;0.70;;;20.50;99.90;;;20.88;95.57;100199.34;5009614;28;20201;-83
2022/07/26 02:30:45;;;;;;;1.65;0.80;;;20.50;99.90;;;20.91;95.44;100199.22;5013125;28;20695;-75
2022/07/26 02:33:14;;;;;;;1.67;0.85;;;20.50;99.90;;;20.86;95.29;100189.59;4991792;28;20223;-74
2022/07/26 02:35:45;;;;;;;1.42;0.68;;;20.50;99.90;;;20.82;93.92;100179.88;5011331;28;20211;-79
2022/07/26 02:38:15;;;;;;;1.17;0.60;;;20.50;99.90;;;20.89;93.92;100182.28;4995757;28;20220;-74
2022/07/26 02:40:43;;;;;;;1.75;0.82;;;;;;;20.83;93.12;100177.13;5012030;28;20215;-77
2022/07/26 02:43:11;;;;;;;1.40;0.70;;;;;;;20.83;92.81;100168.19;4999666;28;20320;-75
2022/07/26 02:45:40;;;;;;;1.42;0.65;;;;;;;20.76;94.18;100180.94;5013210;28;20204;-74
2022/07/26 02:48:08;;;;;;;2.42;0.90;;;;;;;20.69;94.05;100182.13;5013659;28;20204;-75
2022/07/26 02:50:36;;;;;;;4.20;1.10;;;;;;;20.59;95.46;100186.06;5011902;28;20224;-74
2022/07/26 02:53:04;;;;;;;3.45;0.85;;;;;;;20.59;96.01;100196.81;5012591;28;20218;-74
2022/07/26 02:55:33;;;;;;;6.93;1.52;;;;;;;20.38;98.00;100201.97;5012566;28;20222;-77
2022/07/26 02:58:01;;;;;;;3.80;1.15;;;;;;;20.36;98.12;100200.28;4976504;28;20219;-74
2022/07/26 03:00:29;;;;;;;4.20;1.38;;;;;;;20.37;97.29;100196.66;5014026;28;20204;-76
2022/07/26 03:02:59;;;;;;;7.82;2.13;;;;;;;20.34;96.30;100199.44;4994047;28;20219;-74
2022/07/26 03:05:27;;;;;;;3.35;1.10;;;;;;;20.37;96.14;100194.84;4994432;28;20211;-75
2022/07/26 03:07:56;;;;;;;2.17;0.88;;;;;;;20.14;98.49;100194.78;5011425;28;20231;-74
2022/07/26 03:10:24;;;;;;;1.65;0.77;;;;;;;20.10;97.65;100196.69;5013234;28;20223;-76
2022/07/26 03:12:52;;;;;;;4.90;1.65;;;;;;;20.04;96.44;100186.16;4995665;28;20212;-74
2022/07/26 03:15:20;;;;;;;1.73;0.80;;;;;;;20.01;97.72;100191.63;5011281;28;20208;-75
2022/07/26 03:17:49;;;;;;;2.40;0.93;;;;;;;20.00;96.50;100189.88;5009006;28;20235;-77
2022/07/26 03:20:17;;;;;;;2.15;0.75;;;;;;;19.95;95.39;100174.84;5011766;28;20208;-74
2022/07/26 03:22:45;;;;;;;5.13;1.90;;;;;;;20.08;94.95;100182.44;5010961;28;20204;-74
2022/07/26 03:25:13;;;;;;;1.88;0.80;;;19.80;99.90;;;20.04;95.10;100182.59;4994596;28;20652;-74
2022/07/26 03:27:42;;;;;;;0.77;0.40;;;;;;;19.87;94.84;100172.41;5011745;28;20211;-74
2022/07/26 03:30:11;;;;;;;2.70;1.13;;;19.60;99.90;;;19.85;94.41;100176.94;5011435;28;20206;-78
2022/07/26 03:32:40;;;;;;;0.17;0.17;;;;;;;19.88;94.74;100182.22;5011587;28;20216;-74
2022/07/26 03:35:08;;;;;;;0.10;0.10;;;19.80;99.90;;;19.75;95.80;100180.88;5010900;28;20208;-74
2022/07/26 03:37:36;;;;;;;0.10;0.10;;;;;;;19.76;96.83;100198.72;5008254;28;20225;-75
2022/07/26 03:40:16;;;;;;;0.30;0.30;;;19.40;99.90;;;19.55;97.61;100196.72;4992075;28;20215;-75
2022/07/26 03:42:47;;;;;;;0.52;0.38;;;19.40;99.90;;;19.57;97.38;100201.13;5010312;28;20263;-75
2022/07/26 03:45:16;;;;;;;0.30;0.30;;;;;;;19.36;99.01;100205.28;5011595;28;20208;-76
2022/07/26 03:47:45;;;;;;;0.20;0.20;;;;;;;19.09;100.00;100204.31;5011686;28;20212;-74
2022/07/26 03:50:13;;;;;;;0.30;0.30;;;;;;;19.02;100.00;100204.53;5003284;28;20200;-75
2022/07/26 03:52:41;;;;;;;0.40;0.40;;;;;;;19.15;100.00;100225.56;5010226;28;20215;-75
2022/07/26 03:57:57;;;;;;;1.05;0.77;;;;;;;18.52;100.00;100242.50;5009251;28;20236;-75
2022/07/26 04:00:25;;;;;;;0.32;0.32;;;;;;;18.49;100.00;100257.75;4993930;28;20234;-75
2022/07/26 04:02:53;;;;;;;1.77;1.17;;;;;;;18.47;100.00;100270.31;5009141;28;20216;-75
2022/07/26 04:05:22;;;;;;;0.35;0.35;;;;;;;18.49;100.00;100279.19;5010481;28;20199;-76
2022/07/26 04:07:53;;;;;;;0.30;0.30;;;;;;;18.54;100.00;100285.28;4978099;28;20204;-79
2022/07/26 04:10:23;;;;;;;0.38;0.38;;;;;;;18.51;100.00;100290.72;5002803;28;20203;-75
2022/07/26 04:12:51;;;;;;;1.20;0.90;;;;;;;18.78;100.00;100308.78;5011593;28;20204;-75
2022/07/26 04:15:20;;;;;;;0.60;0.52;;;;;;;18.86;100.00;100300.56;5010046;28;20207;-77
2022/07/26 04:17:49;;;;;;;0.22;0.22;;;;;;;18.82;100.00;100296.19;5011429;28;20242;-75
2022/07/26 04:20:18;;;;;;;0.50;0.50;;;;;;;18.86;100.00;100296.06;5009150;28;20208;-79
2022/07/26 04:22:47;;;;;;;1.17;0.68;;;;;;;18.82;100.00;100299.75;5007366;28;20200;-75
2022/07/26 04:25:15;;;;;;;0.60;0.52;;;;;;;18.86;100.00;100312.16;5009659;28;20212;-77
2022/07/26 04:27:44;;;;;;;1.20;0.90;;;;;;;18.90;100.00;100328.13;5007585;28;20216;-76
2022/07/26 04:30:12;;;;;;;0.90;0.70;;;;;;;18.88;100.00;100332.66;5010443;28;20207;-75
2022/07/26 04:32:43;;;;;;;1.95;1.15;;;18.50;99.90;;;18.79;100.00;100331.97;4991139;28;20208;-79
2022/07/26 04:35:15;;;;;;;0.25;0.25;;;;;;;18.76;100.00;100331.19;5009817;28;20212;-75
2022/07/26 04:37:44;;;;;;;0.30;0.30;;;18.50;99.90;;;18.71;100.00;100339.34;5010949;28;20220;-77
2022/07/26 04:40:20;;;;;;;0.70;0.68;;;18.50;99.90;;;18.66;100.00;100346.63;5008514;28;20211;-75
2022/07/26 04:42:51;;;;;;;1.45;1.05;;;;;;;18.65;100.00;100360.94;4992254;28;20230;-77
2022/07/26 04:45:19;;;;;;;1.63;0.98;;;;;;;18.61;100.00;100367.28;5008155;28;20212;-75
2022/07/26 04:47:49;;;;;;;1.50;0.90;;;18.40;99.90;;;18.59;100.00;100379.78;5009743;28;20664;-74
2022/07/26 04:50:19;;;;;;;2.33;0.93;;;18.40;99.90;;;18.54;100.00;100379.03;5007711;28;20216;-77
2022/07/26 04:52:49;;;;;;;5.30;2.00;;;18.40;99.90;;;18.73;100.00;100400.91;5005341;28;20203;-82
2022/07/26 04:55:18;;;;;;;0.98;0.60;;;18.40;99.90;;;18.75;100.00;100408.00;5011875;28;20538;-76
2022/07/26 04:57:46;;;;;;;0.30;0.30;;;;;;;18.86;100.00;100413.09;5005550;28;20219;-76
2022/07/26 05:00:20;;;;;;;0.90;0.60;;;18.60;99.90;;;18.98;100.00;100423.50;5011151;28;20207;-77
2022/07/26 05:02:54;;;;;;;1.85;1.15;;;18.60;99.90;;;19.06;100.00;100434.00;5010782;28;20212;-79
2022/07/26 05:05:26;;;;;;;2.55;1.08;;;18.60;99.90;;;19.07;100.00;100438.47;5010397;28;20216;-76
2022/07/26 05:07:57;;;;;;;3.40;1.23;;;18.70;99.90;;;19.17;100.00;100442.66;5001831;28;20208;-75
2022/07/26 05:10:37;;;;;;;2.20;0.95;;;18.80;99.90;;;19.25;100.00;100448.69;5002751;28;20216;-77
2022/07/26 05:13:06;;;;;;;2.17;0.93;;;18.80;99.90;;;19.33;100.00;100449.38;4993221;28;20225;-76
2022/07/26 05:15:38;;;;;;;2.97;1.23;;;18.80;99.90;;;19.41;100.00;100459.91;5009821;28;20223;-78
2022/07/26 05:18:10;;;;;;;5.18;1.63;;;;;;;19.49;100.00;100456.09;5001276;28;20200;-77
2022/07/26 05:20:40;;;;;;;3.70;1.65;;;;;;;19.48;100.00;100457.00;5004696;28;20566;-76
2022/07/26 05:23:08;;;;;;;3.28;1.30;;;;;;;19.43;100.00;100453.56;5007235;28;20596;-77
2022/07/26 05:25:37;;;;;;;1.25;0.60;;;;;;;19.46;100.00;100456.19;5011126;28;20208;-77
2022/07/26 05:28:06;;;;;;;2.80;1.20;;;;;;;19.42;100.00;100467.91;5008544;28;20204;-80
2022/07/26 05:30:34;;;;;;;2.05;0.93;;;;;;;19.46;100.00;100471.38;5011058;28;20204;-76
2022/07/26 05:33:02;;;;;;;1.50;0.85;;;;;;;19.46;100.00;100479.44;5004980;28;20735;-76
2022/07/26 05:35:31;;;;;;;2.17;0.68;;;;;;;19.43;100.00;100469.66;5011572;28;20200;-77
2022/07/26 05:37:59;;;;;;;3.90;1.40;;;;;;;19.40;100.00;100472.44;4996283;28;20216;-77
2022/07/26 05:40:27;;;;;;;4.15;1.30;;;;;;;19.42;100.00;100467.03;5015287;28;20204;-77
2022/07/26 05:42:56;;;;;;;5.00;1.67;;;;;;;19.53;100.00;100469.50;4992039;28;20214;-80
2022/07/26 05:45:24;;;;;;;2.17;0.80;;;;;;;19.58;98.31;100449.66;4998025;28;20583;-79
2022/07/26 05:47:52;;;;;;;1.85;0.68;;;;;;;19.65;97.27;100440.53;5009385;28;20215;-76
2022/07/26 05:50:20;;;;;;;2.75;0.90;;;;;;;19.83;95.39;100431.06;5014261;28;20227;-76
2022/07/26 05:52:48;;;;;;;5.97;1.92;;;;;;;19.93;93.88;100421.81;5013006;28;20652;-78
2022/07/26 05:55:17;;;;;;;8.70;2.50;;;;;;;20.02;93.07;100417.97;5010852;28;20215;-76
2022/07/26 05:57:48;;;;;;;5.25;1.60;;;;;;;20.04;93.40;100425.06;5009746;28;20200;-81
2022/07/26 06:00:17;;;;;;;4.72;1.50;;;19.50;99.90;;;20.14;93.00;100422.97;5011216;28;20215;-76
2022/07/26 06:02:47;;;;;;;4.85;1.38;;;;;;;20.21;92.52;100431.72;4992634;28;20223;-76
2022/07/26 06:05:15;;;;;;;4.80;1.65;;;;;;;20.22;91.96;100422.75;5013536;28;20216;-80
2022/07/26 06:07:43;;;;;;;3.78;1.20;;;;;;;20.37;91.94;100433.91;5006036;28;20215;-80
2022/07/26 06:10:12;;;;;;;2.22;0.80;;;;;;;20.47;92.26;100445.25;5012949;28;20235;-77
2022/07/26 06:12:40;;;;;;;7.45;2.65;;;;;;;20.52;91.24;100437.94;5007096;28;20212;-85
2022/07/26 06:15:08;;;;;;;6.22;1.88;;;20.40;99.90;;;20.59;90.59;100433.25;5009680;28;20684;-77
2022/07/26 06:17:42;;;;;;;2.55;1.00;;;;;;;20.62;89.53;100427.78;4996943;28;20211;-77
2022/07/26 06:20:11;;;;;;;5.22;1.55;;;19.90;99.90;;;20.71;89.50;100416.72;5017219;28;20212;-76
2022/07/26 06:22:39;;;;;;;3.70;1.33;;;;;;;20.73;88.87;100413.06;5012522;28;20202;-76
2022/07/26 06:25:08;;;;;;;3.50;1.20;;;20.70;99.90;;;20.72;89.16;100413.09;5016637;28;20223;-79
2022/07/26 06:27:36;;;;;;;3.55;1.08;;;;;;;20.76;87.23;100388.78;5011956;28;20223;-75
2022/07/26 06:30:06;;;;;;;2.97;0.98;;;;;;;20.96;86.82;100406.94;5008139;28;20239;-77
2022/07/26 06:32:34;;;;;;;5.47;1.52;;;;;;;20.97;86.58;100395.25;4995642;28;20207;-77
2022/07/26 06:35:03;;;;;;;7.15;1.70;;;;;;;21.07;86.55;100398.50;5008540;28;20239;-76
2022/07/26 06:37:31;;;;;;;9.45;2.30;;;;;;;21.04;86.63;100398.63;5010499;28;20593;-76
2022/07/26 06:39:59;;;;;;;4.85;1.23;;;;;;;21.18;85.57;100400.81;5011368;28;20219;-76
2022/07/26 06:42:27;;;;;;;6.30;1.75;;;;;;;21.28;85.72;100413.06;5011013;28;20212;-76
2022/07/26 06:44:56;;;;;;;6.25;1.60;;;;;;;21.28;83.97;100388.84;5004650;28;20215;-80
2022/07/26 06:47:25;;;;;;;6.63;1.52;;;20.80;99.90;;;21.23;84.78;100380.94;5010312;28;20215;-78
2022/07/26 06:49:53;;;;;;;5.10;1.30;;;;;;;21.50;85.33;100411.34;4995164;28;20226;-76
2022/07/26 06:52:21;;;;;;;6.63;1.65;;;;;;;21.52;83.68;100384.38;5013624;28;20215;-76
2022/07/26 06:54:50;;;;;;;5.85;1.50;;;;;;;21.60;84.04;100388.53;5003528;28;20231;-76
2022/07/26 06:57:18;;;;;;;3.35;0.90;;;;;;;21.86;83.09;100408.22;4979250;28;20645;-77
2022/07/26 06:59:46;;;;;;;2.50;0.68;;;;;;;21.87;82.39;100381.25;4996056;28;20276;-76
2022/07/26 07:02:15;;;;;;;3.83;1.08;;;;;;;22.06;83.91;100411.06;5014086;28;20200;-79
2022/07/26 07:04:43;;;;;;;2.75;0.90;;;;;;;21.95;82.46;100381.84;5012434;28;20232;-77
2022/07/26 07:07:12;;;;;;;3.50;1.05;;;;;;;22.03;83.44;100379.75;4996229;28;20664;-76
2022/07/26 07:09:41;;;;;;;4.82;1.30;;;;;;;22.13;82.24;100385.69;4995484;28;20223;-76
2022/07/26 07:12:10;;;;;;;3.90;1.00;;;;;;;22.40;82.41;100390.91;5012996;28;20215;-76
2022/07/26 07:14:38;;;;;;;2.67;0.70;;;;;;;22.39;82.58;100392.75;5012946;28;20239;-80
2022/07/26 07:17:07;;;;;;;4.28;1.30;;;;;;;22.43;81.44;100363.84;5026922;28;20521;-77
2022/07/26 07:19:41;;;;;;;4.07;1.08;;;;;;;21.91;81.35;100315.56;5015867;28;20628;-76
2022/07/26 07:22:10;;;;;;;2.70;0.75;;;;;;;21.93;81.84;100320.91;5001313;28;20657;-75
2022/07/26 07:24:40;;;;;;;6.05;1.52;;;21.80;99.90;;;22.12;81.00;100337.28;5005126;28;20699;-77
2022/07/26 07:27:09;;;;;;;6.82;1.55;;;;;;;22.14;80.70;100325.50;5005883;28;20208;-78
2022/07/26 07:29:38;;;;;;;8.55;2.05;;;;;;;22.25;79.78;100320.56;4980550;28;20231;-76
2022/07/26 07:32:08;;;;;;;6.40;1.60;;;;;;;22.56;79.72;100340.84;5014973;28;20212;-77
2022/07/26 07:34:46;;;;;;;12.45;2.85;;;;;;;22.81;79.85;100346.97;5005346;28;20234;-79
2022/07/26 07:37:16;;;;;;;5.68;1.35;;;22.60;99.90;;;23.01;79.04;100351.53;5010133;28;20254;-76
2022/07/26 07:39:48;;;;;;;9.02;2.05;;;22.50;99.90;;;22.58;79.41;100296.72;5002298;28;20687;-80
2022/07/26 07:42:18;;;;;;;9.25;2.40;;;22.50;99.90;;;22.68;78.61;100299.91;5004895;28;20218;-84
2022/07/26 07:45:05;;;;;;;7.32;1.83;;;23.60;99.90;;;23.15;78.18;100327.50;5005955;28;20238;-78
2022/07/26 07:47:34;;;;;;;9.35;2.35;;;;;;;22.66;78.17;100267.63;5010417;28;20212;-75
2022/07/26 07:50:02;;;;;;;9.52;2.22;;;;;;;22.81;78.40;100284.09;4991358;28;20226;-76
2022/07/26 07:52:30;;;;;;;10.82;2.58;;;;;;;22.50;78.78;100244.97;5008691;28;20203;-80
2022/07/26 07:54:59;;;;;;;9.20;2.20;;;;;;;22.89;78.91;100296.28;5009112;28;20224;-83
2022/07/26 07:57:47;;;;;;;14.57;3.42;;;;;;;22.67;77.30;100241.53;4998823;28;20216;-81
2022/07/26 08:00:18;;;;;;;8.18;1.95;;;22.50;99.90;;;23.14;78.63;100301.47;5006978;28;20204;-79
2022/07/26 08:02:54;;;;;;;15.23;3.30;;;;;;;23.37;77.08;100292.34;5008338;28;20691;-79
2022/07/26 08:05:22;;;;;;;11.70;2.63;;;;;;;23.41;76.24;100272.41;5008669;28;20200;-75
2022/07/26 08:07:51;;;;;;;8.98;1.98;;;;;;;23.72;76.15;100288.06;5010276;28;20207;-76
2022/07/26 08:10:20;;;;;;;9.35;2.05;;;;;;;23.71;76.55;100280.03;5001331;28;20235;-79
2022/07/26 08:12:48;;;;;;;21.17;4.43;;;;;;;23.70;75.11;100251.28;5008313;28;20211;-81
2022/07/26 08:15:18;;;;;;;18.48;3.85;;;;;;;23.80;74.03;100228.28;4988442;28;20204;-79
2022/07/26 08:17:49;;;;;;;11.80;2.53;;;;;;;23.72;73.29;100196.25;5002467;28;20233;-77
2022/07/26 08:20:21;;;;;;;8.13;1.88;;;;;;;23.93;74.90;100224.03;4992398;28;20218;-77
2022/07/26 08:22:52;;;;;;;11.98;2.40;;;;;;;24.02;73.44;100206.50;5007549;28;20211;-76
2022/07/26 08:25:20;;;;;;;12.77;2.70;;;;;;;24.23;73.00;100217.09;4998735;28;20660;-76
2022/07/26 08:27:49;;;;;;;11.98;2.50;;;;;;;24.15;72.50;100195.00;5008664;28;20219;-76
2022/07/26 08:30:31;;;;;;;10.60;2.85;;;23.60;99.90;;;23.87;73.34;100137.91;5008485;28;20249;-78
2022/07/26 08:33:00;;;;;;;15.73;3.08;;;;;;;24.25;72.53;100176.50;5008700;28;20196;-79
2022/07/26 08:35:28;;;;;;;15.30;3.20;;;;;;;23.96;72.63;100123.94;5007487;28;20207;-78
2022/07/26 08:37:57;;;;;;;9.70;2.00;;;;;;;24.20;73.68;100165.03;5009041;28;20211;-77
2022/07/26 08:40:25;;;;;;;15.65;3.35;;;;;;;23.96;74.04;100136.56;5007617;28;20203;-77
2022/07/26 08:42:56;;;;;;;14.07;3.40;;;24.60;99.90;;;24.38;73.20;100169.53;5008215;28;20212;-77
2022/07/26 08:45:32;;;;;;;8.80;2.28;;;24.40;99.90;;;23.99;74.38;100134.59;5005865;28;20203;-75
2022/07/26 08:48:01;;;;;;;5.45;1.40;;;;;;;24.09;74.52;100143.97;5004971;28;20215;-80
2022/07/26 08:50:46;;;;;;;7.65;2.22;;;24.30;99.90;;;24.08;74.21;100134.13;5002468;28;20227;-79
2022/07/26 08:53:15;;;;;;;5.70;1.80;;;;;;;23.98;72.25;100099.56;4985901;28;20234;-80
2022/07/26 08:55:43;;;;;;;13.50;3.25;;;;;;;24.51;71.08;100140.91;5007873;28;20203;-76
2022/07/26 08:58:35;;;;;;;4.45;1.35;;;24.50;99.90;;;24.33;69.52;100074.31;5005595;28;20224;-76
2022/07/26 09:01:11;;;;;;;6.03;1.80;;;24.50;99.90;;;24.46;69.54;100079.94;5007210;28;20226;-76
2022/07/26 09:03:42;;;;;;;13.57;3.47;;;24.60;99.90;;;24.87;70.27;100129.09;5004011;28;20249;-79
2022/07/26 09:06:23;;;;;;;15.65;3.72;;;25.50;99.90;;;25.30;69.35;100129.44;5000835;28;20198;-76
2022/07/26 09:09:11;;;;;;;15.10;3.72;;;25.20;99.90;;;25.60;68.25;100127.69;4983899;28;20722;-76
2022/07/26 09:11:40;;;;;;;13.90;3.60;;;;;;;25.36;68.52;100073.13;4999699;28;20223;-78
2022/07/26 09:14:11;;;;;;;13.43;3.30;;;;;;;25.53;68.73;100097.38;5000982;28;20222;-78
2022/07/26 09:16:39;;;;;;;11.52;3.20;;;;;;;24.87;68.29;99991.16;5002693;28;20210;-80
2022/07/26 09:19:21;;;;;;;7.63;2.25;;;25.00;99.90;;;24.94;67.46;99981.72;5001243;28;20966;-75
2022/07/26 09:21:52;;;;;;;9.18;2.72;;;25.30;99.90;;;25.71;66.64;100045.84;5004698;28;20195;-76
2022/07/26 09:24:37;;;;;;;10.45;3.38;;;25.60;99.90;;;24.84;67.99;99940.81;4988927;28;20234;-77
2022/07/26 09:27:08;;;;;;;11.93;3.60;;;25.10;99.90;;;24.66;68.33;99936.41;5002519;28;20214;-81
2022/07/26 09:29:53;;;;;;;11.52;3.15;;;25.30;99.90;;;25.37;67.49;100012.59;5007980;28;20207;-78
2022/07/26 09:32:24;;;;;;;8.20;2.10;;;25.60;99.90;;;26.07;67.52;100080.72;5007694;28;20226;-81
2022/07/26 09:35:09;;;;;;;11.82;3.15;;;25.10;99.90;;;25.59;68.08;100014.91;5004144;28;20223;-76
2022/07/26 09:37:58;;;;;;;12.55;3.55;;;;;;;25.76;67.87;100025.63;4989576;28;20223;-79
2022/07/26 09:40:34;;;;;;;11.32;2.97;;;25.60;99.90;;;25.38;68.26;99965.63;5006813;28;20210;-81
2022/07/26 09:43:06;;;;;;;11.40;3.00;;;25.40;99.90;;;25.36;67.73;99945.91;5005974;28;20241;-79
2022/07/26 09:45:37;;;;;;;7.38;2.10;;;;;;;25.23;68.11;99939.47;4988805;28;20735;-80
2022/07/26 09:48:05;;;;;;;11.60;3.22;;;;;;;25.86;66.95;99990.75;5007543;28;20195;-77
2022/07/26 09:50:33;;;;;;;11.32;3.08;;;;;;;26.51;67.09;100050.91;4989341;28;20234;-76
2022/07/26 09:53:10;;;;;;;12.00;3.30;;;25.50;99.90;;;26.01;66.36;99961.88;5005190;28;20227;-75
2022/07/26 09:55:44;;;;;;;10.40;2.78;;;26.40;99.90;;;26.60;67.38;100041.31;4987068;28;20218;-77
2022/07/26 09:58:15;;;;;;;12.73;3.25;;;29.40;99.90;;;26.87;65.82;100019.69;5004740;28;20203;-78
2022/07/26 10:00:43;;;;;;;16.83;4.22;;;26.80;99.90;;;25.83;65.71;99871.75;4986821;28;20215;-76
2022/07/26 10:03:12;;;;;;;13.23;3.08;;;25.90;99.90;;;25.38;66.73;99840.25;5004495;28;20230;-76
2022/07/26 10:05:40;;;;;;;15.30;3.70;;;25.70;99.90;;;25.19;66.56;99824.25;5004745;28;20207;-81
2022/07/26 10:08:09;;;;;;;9.25;2.33;;;;;;;25.24;66.67;99832.97;5005657;28;20755;-81
2022/07/26 10:10:49;;;;;;;13.75;3.45;;;26.00;99.90;;;26.20;66.23;99926.34;4988281;28;20223;-79
2022/07/26 10:13:18;;;;;;;15.63;3.80;;;;;;;27.24;65.74;100020.88;4987649;28;20226;-77
2022/07/26 10:15:48;;;;;;;16.98;3.95;;;27.10;99.90;;;27.18;64.28;99958.84;4989297;28;20211;-78
2022/07/26 10:18:35;;;;;;;15.63;3.53;;;27.30;99.90;;;26.80;64.62;99905.25;4999117;28;20203;-82
2022/07/26 10:21:17;;;;;;;11.40;2.88;;;26.90;99.90;;;26.29;65.44;99842.59;5004165;28;20207;-80
2022/07/26 10:23:48;;;;;;;12.38;3.13;;;26.80;99.90;;;26.29;65.54;99839.88;5004114;28;20750;-79
2022/07/26 10:26:32;;;;;;;17.40;4.15;;;27.00;99.90;;;27.12;65.71;99941.13;4986734;28;20607;-79
2022/07/26 10:29:25;;;;;;;13.27;3.13;;;27.60;99.90;;;26.33;65.18;99818.91;5001166;28;20206;-75
2022/07/26 10:32:02;;;;;;;15.40;3.60;;;27.50;99.90;;;27.55;63.41;99936.41;5003663;28;20230;-78
2022/07/26 10:34:39;;;;;;;16.13;3.53;;;27.80;99.90;;;27.78;63.22;99947.53;4999370;28;20233;-75
2022/07/26 10:37:11;;;;;;;16.58;3.60;;;27.60;99.90;;;26.93;64.80;99824.78;5002433;28;20210;-76
2022/07/26 10:39:39;;;;;;;12.05;2.75;;;;;;;26.37;63.52;99748.13;4990087;28;20211;-77
2022/07/26 10:42:09;;;;;;;13.88;3.22;;;27.40;99.90;;;26.43;64.06;99763.09;4987432;28;20215;-76
2022/07/26 10:44:46;;;;;;;14.77;3.63;;;26.70;99.90;;;25.93;64.89;99709.50;5001743;28;20670;-77
2022/07/26 10:47:17;;;;;;;15.50;3.53;;;26.50;99.90;;;25.71;64.20;99694.66;5004082;28;20203;-76
2022/07/26 10:49:58;;;;;;;25.15;5.60;;;26.30;99.90;;;26.29;63.38;99739.59;5000752;28;20222;-77
2022/07/26 10:52:31;;;;;;;7.78;2.00;;;26.90;99.90;;;27.10;61.92;99805.53;5005553;28;20230;-77
2022/07/26 10:55:00;;;;;;;3.85;1.05;;;;;;;27.19;60.46;99771.44;4996590;28;20231;-78
2022/07/26 10:57:40;;;;;;;7.82;1.90;;;27.50;99.90;;;27.44;60.87;99786.03;5009877;28;20223;-82
2022/07/26 11:00:15;;;;;;;10.77;2.53;;;27.70;99.90;;;27.43;61.38;99774.31;5007780;28;20881;-79
2022/07/26 11:02:47;;;;;;;21.20;5.30;;;28.00;99.90;;;27.38;61.89;99752.91;4996007;28;20672;-79
2022/07/26 11:05:17;;;;;;;13.00;3.17;;;27.90;99.90;;;27.08;62.77;99719.75;5004105;28;20207;-75
2022/07/26 11:08:08;;;;;;;9.27;2.72;;;27.90;99.90;;;27.57;63.37;99792.34;5002900;28;20218;-75
2022/07/26 11:10:45;;;;;;;13.27;3.38;;;27.50;99.90;;;26.81;61.83;99651.13;5004437;28;20231;-82
2022/07/26 11:13:22;;;;;;;14.45;3.60;;;27.50;99.90;;;26.71;62.81;99656.31;4987122;28;20683;-78
2022/07/26 11:15:59;;;;;;;5.45;1.50;;;27.60;99.90;;;26.97;62.71;99684.34;5011067;28;20218;-75
2022/07/26 11:18:31;;;;;;;5.10;1.45;;;27.70;99.90;;;26.98;62.82;99686.09;4988717;28;20217;-81